Terminal Aerodrome Forecast
Issued by NWS

Current Version | Previous Version | Text Only | Print | Product List | Glossary On
Versions: 1 2 3 4 5 6 7 8 9 10 11 12 13
000
FTUS46 KMTR 061720
TAFOAK
TAF
KOAK 061720Z 0618/0724 28010KT P6SM FEW016 FEW020 FEW250
     FM062100 28016G21KT P6SM FEW020 SCT250
     FM070300 28013KT P6SM SCT015
     FM070500 28011KT P6SM BKN014
     FM070800 28008KT P6SM OVC010
     FM071800 28010KT P6SM FEW010 SCT015
     FM072100 28015KT P6SM FEW012 FEW016=

USA.gov is the U.S. government's official web portal to all federal, state and local government web resources and services.